Thunder radar more information blitzortung!


Radar de pluja more information rain snow radar


Visita la nostra xarxa de llocs de meteo:

Template documentation
and downloads

And another site



Extreme low temperature From: 23-02-2018 00:00 Until: 09:59 warning for: Extreme low temperature Level: Yellow info button

Pagina Historial Weather Underground text

Diari Resum Novembre 17, 2017 Unitats:  Tant    Imperial   Mètric
« Previous Dia
SegĂźent Dia »
Diari Setmana Mensual Anual Personalitzada
  Maxima: Minima: Media:
Temperatura: TemperatureC °F /  -17.8 °C 3.5 °F /  -15.8 °C 12.1 °F /  -11.1 °C
Punt de rosada: DewpointC °F /  -17.8 °C -3.6 °F /  -19.8 °C 0.6 °F /  -17.4 °C
Humitat: Humidity % 39 % 45 %
Wind Speed: WindSpeedKMH mph /  0 km/h - 2.5 mph /  4 km/h
RĂ fegues de vent: WindSpeedGustKMH mph /  0 km/h - -
Vent:- - SSE
Pression baro: PressurehPa in /  0 hPa 1017.8 in /  34462.7 hPa -
Precipitacions: 0.0 in /  0 mm    
Historical Graphs
 
 
Dades de taula per Novembre 17, 2017
Temps Temperatura Punt de rosada Pression baro Vent Wind Speed RĂ fegues de vent Humitat Rainfall Rate (Hourly)
TemperatureC °F /  -17.8 °C DewpointC °F /  -17.8 °C PressurehPa in /  0 hPa Calm     Humidity % HourlyPrecipMM in /  0 mm
00:00 6.8 °F /  -14 °C -1.6 °F /  -18.7 °C 1020.9 in /  34567.7 hPa NNE 3.7 mph /  6 km/h 3.7 mph /  6 km/h 55 % 0.0 in /  0 mm
00:05 6.6 °F /  -14.1 °C -1.8 °F /  -18.8 °C 1020.9 in /  34567.7 hPa Calm     55 % 0.0 in /  0 mm
00:15 3.7 °F /  -15.7 °C -3.6 °F /  -19.8 °C 1019.9 in /  34533.8 hPa WNW 1.6 mph /  2.6 km/h 3.2 mph /  5.1 km/h 59 % 0.0 in /  0 mm
00:25 3.7 °F /  -15.7 °C -3.6 °F /  -19.8 °C 1019.9 in /  34533.8 hPa WNW 3.2 mph /  5.1 km/h 3.2 mph /  5.1 km/h 59 % 0.0 in /  0 mm
00:35 3.6 °F /  -15.8 °C -3.4 °F /  -19.7 °C 1019.9 in /  34533.8 hPa Calm   3.2 mph /  5.1 km/h 60 % 0.0 in /  0 mm
00:45 3.6 °F /  -15.8 °C -3.4 °F /  -19.7 °C 1019.9 in /  34533.8 hPa Calm   3.2 mph /  5.1 km/h 60 % 0.0 in /  0 mm
00:55 3.6 °F /  -15.8 °C -3.4 °F /  -19.7 °C 1019.9 in /  34533.8 hPa West 1.6 mph /  2.6 km/h 3.2 mph /  5.1 km/h 60 % 0.0 in /  0 mm
01:05 3.6 °F /  -15.8 °C -3.4 °F /  -19.7 °C 1019.9 in /  34533.8 hPa WSW 1.6 mph /  2.6 km/h 3.2 mph /  5.1 km/h 60 % 0.0 in /  0 mm
01:15 3.5 °F /  -15.8 °C -3.6 °F /  -19.8 °C 1019.9 in /  34533.8 hPa WSW 1.6 mph /  2.6 km/h 3.2 mph /  5.1 km/h 60 % 0.0 in /  0 mm
01:25 3.9 °F /  -15.6 °C -3.4 °F /  -19.7 °C 1019.9 in /  34533.8 hPa West 1.6 mph /  2.6 km/h 3.2 mph /  5.1 km/h 59 % 0.0 in /  0 mm
01:35 4.0 °F /  -15.6 °C -3.3 °F /  -19.6 °C 1019.9 in /  34533.8 hPa Calm   3.2 mph /  5.1 km/h 59 % 0.0 in /  0 mm
01:45 3.8 °F /  -15.7 °C -3.3 °F /  -19.6 °C 1019.9 in /  34533.8 hPa Calm   3.2 mph /  5.1 km/h 60 % 0.0 in /  0 mm
01:55 4.0 °F /  -15.6 °C -3.3 °F /  -19.6 °C 1019.9 in /  34533.8 hPa Calm   3.2 mph /  5.1 km/h 59 % 0.0 in /  0 mm
02:05 4.1 °F /  -15.5 °C -3.2 °F /  -19.6 °C 1019.9 in /  34533.8 hPa Calm   3.2 mph /  5.1 km/h 59 % 0.0 in /  0 mm
02:15 4.5 °F /  -15.3 °C -2.8 °F /  -19.3 °C 1019.9 in /  34533.8 hPa NW 1.6 mph /  2.6 km/h   59 % 0.0 in /  0 mm
02:25 4.5 °F /  -15.3 °C -2.8 °F /  -19.3 °C 1018.8 in /  34496.6 hPa Calm   3.2 mph /  5.1 km/h 59 % 0.0 in /  0 mm
02:35 4.7 °F /  -15.2 °C -2.7 °F /  -19.3 °C 1018.8 in /  34496.6 hPa West 3.2 mph /  5.1 km/h 4.8 mph /  7.7 km/h 59 % 0.0 in /  0 mm
02:45 5.1 °F /  -14.9 °C -2.3 °F /  -19.1 °C 1019.9 in /  34533.8 hPa WSW 1.6 mph /  2.6 km/h 3.2 mph /  5.1 km/h 59 % 0.0 in /  0 mm
02:55 5.7 °F /  -14.6 °C -1.9 °F /  -18.8 °C 1019.9 in /  34533.8 hPa WSW 1.6 mph /  2.6 km/h 3.2 mph /  5.1 km/h 58 % 0.0 in /  0 mm
03:05 7.0 °F /  -13.9 °C -0.7 °F /  -18.2 °C 1019.9 in /  34533.8 hPa Calm   1.6 mph /  2.6 km/h 58 % 0.0 in /  0 mm
03:15 7.4 °F /  -13.7 °C -0.6 °F /  -18.1 °C 1019.9 in /  34533.8 hPa NW 1.6 mph /  2.6 km/h 4.8 mph /  7.7 km/h 57 % 0.0 in /  0 mm
03:25 7.7 °F /  -13.5 °C -0.6 °F /  -18.1 °C 1020.9 in /  34567.7 hPa NNE 1.6 mph /  2.6 km/h 4.8 mph /  7.7 km/h 56 % 0.0 in /  0 mm
03:35 8.0 °F /  -13.3 °C -0.3 °F /  -17.9 °C 1020.9 in /  34567.7 hPa NE 1.6 mph /  2.6 km/h 4.8 mph /  7.7 km/h 56 % 0.0 in /  0 mm
03:45 8.6 °F /  -13 °C 0.1 °F /  -17.7 °C 1019.9 in /  34533.8 hPa NE 1.6 mph /  2.6 km/h 3.2 mph /  5.1 km/h 55 % 0.0 in /  0 mm
03:55 8.9 °F /  -12.8 °C 0.1 °F /  -17.7 °C 1020.9 in /  34567.7 hPa NE 4.8 mph /  7.7 km/h 4.8 mph /  7.7 km/h 54 % 0.0 in /  0 mm
04:05 8.7 °F /  -12.9 °C -0.1 °F /  -17.8 °C 1020.9 in /  34567.7 hPa NE 1.6 mph /  2.6 km/h 4.8 mph /  7.7 km/h 54 % 0.0 in /  0 mm
04:15 9.2 °F /  -12.7 °C 0.1 °F /  -17.7 °C 1020.9 in /  34567.7 hPa NE 1.6 mph /  2.6 km/h 3.2 mph /  5.1 km/h 53 % 0.0 in /  0 mm
04:25 9.4 °F /  -12.6 °C 0.3 °F /  -17.6 °C 1020.9 in /  34567.7 hPa NNE 1.6 mph /  2.6 km/h 4.8 mph /  7.7 km/h 53 % 0.0 in /  0 mm
04:35 10.2 °F /  -12.1 °C 0.8 °F /  -17.3 °C 1020.9 in /  34567.7 hPa NNE 1.6 mph /  2.6 km/h 3.2 mph /  5.1 km/h 52 % 0.0 in /  0 mm
06:45 15.5 °F /  -9.2 °C 4.2 °F /  -15.4 °C 1019.9 in /  34533.8 hPa ESE 1.6 mph /  2.6 km/h 3.2 mph /  5.1 km/h 47 % 0.0 in /  0 mm
06:55 15.7 °F /  -9.1 °C 4.7 °F /  -15.2 °C 1019.9 in /  34533.8 hPa SE 1.6 mph /  2.6 km/h 4.8 mph /  7.7 km/h 48 % 0.0 in /  0 mm
07:45 16.4 °F /  -8.7 °C 4.7 °F /  -15.2 °C 1018.8 in /  34496.6 hPa NNE 1.6 mph /  2.6 km/h 1.6 mph /  2.6 km/h 46 % 0.0 in /  0 mm
07:55 16.5 °F /  -8.6 °C 4.5 °F /  -15.3 °C 1018.8 in /  34496.6 hPa NNE 3.2 mph /  5.1 km/h 6.4 mph /  10.3 km/h 45 % 0.0 in /  0 mm
10:37 10.6 °F /  -11.9 °C 1.2 °F /  -17.1 °C 1020.9 in /  34567.7 hPa NW 1.9 mph /  3.1 km/h   52 % 0.0 in /  0 mm
10:38 10.6 °F /  -11.9 °C 1.2 °F /  -17.1 °C 1019.9 in /  34533.8 hPa NW 2.3 mph /  3.7 km/h 2.3 mph /  3.7 km/h 52 % 0.0 in /  0 mm
10:39 10.5 °F /  -11.9 °C 1.1 °F /  -17.2 °C 1019.9 in /  34533.8 hPa NW 3.7 mph /  6 km/h 3.7 mph /  6 km/h 52 % 0.0 in /  0 mm
10:44 10.7 °F /  -11.8 °C 1.2 °F /  -17.1 °C 1019.9 in /  34533.8 hPa North 1.9 mph /  3.1 km/h 1.9 mph /  3.1 km/h 52 % 0.0 in /  0 mm
10:49 11.2 °F /  -11.6 °C 1.4 °F /  -17 °C 1020.9 in /  34567.7 hPa NE 1.9 mph /  3.1 km/h   51 % 0.0 in /  0 mm
10:54 11.3 °F /  -11.5 °C 1.5 °F /  -16.9 °C 1020.9 in /  34567.7 hPa ENE 4.2 mph /  6.8 km/h 4.2 mph /  6.8 km/h 51 % 0.0 in /  0 mm
10:59 11.3 °F /  -11.5 °C 1.5 °F /  -16.9 °C 1020.9 in /  34567.7 hPa NE 3.7 mph /  6 km/h 3.7 mph /  6 km/h 51 % 0.0 in /  0 mm
11:04 11.6 °F /  -11.3 °C 1.8 °F /  -16.8 °C 1020.9 in /  34567.7 hPa ENE 3.7 mph /  6 km/h 3.7 mph /  6 km/h 51 % 0.0 in /  0 mm
11:09 11.5 °F /  -11.4 °C 1.7 °F /  -16.8 °C 1020.9 in /  34567.7 hPa East 4.2 mph /  6.8 km/h 4.2 mph /  6.8 km/h 51 % 0.0 in /  0 mm
11:14 11.7 °F /  -11.3 °C 1.9 °F /  -16.7 °C 1020.9 in /  34567.7 hPa NE 3.7 mph /  6 km/h 3.7 mph /  6 km/h 51 % 0.0 in /  0 mm
11:19 12.1 °F /  -11.1 °C 2.3 °F /  -16.5 °C 1020.9 in /  34567.7 hPa NE 2.6 mph /  4.2 km/h   51 % 0.0 in /  0 mm
11:24 11.9 °F /  -11.2 °C 1.8 °F /  -16.8 °C 1020.9 in /  34567.7 hPa East 3.7 mph /  6 km/h 4.2 mph /  6.8 km/h 50 % 0.0 in /  0 mm
11:29 12.1 °F /  -11.1 °C 2.0 °F /  -16.7 °C 1020.9 in /  34567.7 hPa ENE 3.7 mph /  6 km/h 3.7 mph /  6 km/h 50 % 0.0 in /  0 mm
11:34 12.4 °F /  -10.9 °C 2.3 °F /  -16.5 °C 1020.9 in /  34567.7 hPa ENE 3.7 mph /  6 km/h 3.9 mph /  6.3 km/h 50 % 0.0 in /  0 mm
11:39 12.5 °F /  -10.8 °C 2.1 °F /  -16.6 °C 1020.9 in /  34567.7 hPa ENE 3.7 mph /  6 km/h 3.7 mph /  6 km/h 49 % 0.0 in /  0 mm
11:44 12.8 °F /  -10.7 °C 2.3 °F /  -16.5 °C 1020.9 in /  34567.7 hPa SE 3.7 mph /  6 km/h 3.7 mph /  6 km/h 49 % 0.0 in /  0 mm
11:49 13.0 °F /  -10.6 °C 2.5 °F /  -16.4 °C 1019.9 in /  34533.8 hPa NNE 3.7 mph /  6 km/h 3.7 mph /  6 km/h 49 % 0.0 in /  0 mm
11:54 13.2 °F /  -10.4 °C 2.7 °F /  -16.3 °C 1019.9 in /  34533.8 hPa NE 3.7 mph /  6 km/h 3.7 mph /  6 km/h 49 % 0.0 in /  0 mm
11:59 13.4 °F /  -10.3 °C 2.6 °F /  -16.3 °C 1019.9 in /  34533.8 hPa ENE 5.6 mph /  9 km/h 5.6 mph /  9 km/h 48 % 0.0 in /  0 mm
12:04 13.5 °F /  -10.3 °C 2.7 °F /  -16.3 °C 1019.9 in /  34533.8 hPa ENE 3.7 mph /  6 km/h 3.7 mph /  6 km/h 48 % 0.0 in /  0 mm
12:09 13.8 °F /  -10.1 °C 2.9 °F /  -16.2 °C 1019.9 in /  34533.8 hPa NE 2.3 mph /  3.7 km/h 2.3 mph /  3.7 km/h 48 % 0.0 in /  0 mm
12:14 14.2 °F /  -9.9 °C 3.3 °F /  -15.9 °C 1019.9 in /  34533.8 hPa East 3.7 mph /  6 km/h   48 % 0.0 in /  0 mm
12:19 14.7 °F /  -9.6 °C 3.8 °F /  -15.7 °C 1019.9 in /  34533.8 hPa WSW 1.9 mph /  3.1 km/h   48 % 0.0 in /  0 mm
12:24 15.1 °F /  -9.4 °C 4.2 °F /  -15.4 °C 1019.9 in /  34533.8 hPa SE 3.7 mph /  6 km/h 3.7 mph /  6 km/h 48 % 0.0 in /  0 mm
12:29 15.0 °F /  -9.4 °C 4.1 °F /  -15.5 °C 1019.9 in /  34533.8 hPa ESE 4.2 mph /  6.8 km/h 4.2 mph /  6.8 km/h 48 % 0.0 in /  0 mm
12:58 16.4 °F /  -8.7 °C 5.1 °F /  -14.9 °C 1019.9 in /  34533.8 hPa Calm   1.8 mph /  2.9 km/h 47 % 0.0 in /  0 mm
13:03 16.2 °F /  -8.8 °C 4.9 °F /  -15.1 °C 1019.9 in /  34533.8 hPa NE 3.7 mph /  6 km/h 3.7 mph /  6 km/h 47 % 0.0 in /  0 mm
13:08 16.2 °F /  -8.8 °C 4.6 °F /  -15.2 °C 1019.9 in /  34533.8 hPa NNE 5.8 mph /  9.3 km/h 5.8 mph /  9.3 km/h 46 % 0.0 in /  0 mm
13:13 16.3 °F /  -8.7 °C 4.7 °F /  -15.2 °C 1019.9 in /  34533.8 hPa NE 3.7 mph /  6 km/h 3.7 mph /  6 km/h 46 % 0.0 in /  0 mm
13:18 16.1 °F /  -8.8 °C 4.4 °F /  -15.3 °C 1019.9 in /  34533.8 hPa North 7.4 mph /  11.9 km/h 7.4 mph /  11.9 km/h 46 % 0.0 in /  0 mm
13:23 16.1 °F /  -8.8 °C 4.4 °F /  -15.3 °C 1019.9 in /  34533.8 hPa ENE 5.6 mph /  9 km/h 5.6 mph /  9 km/h 46 % 0.0 in /  0 mm
13:28 16.3 °F /  -8.7 °C 4.7 °F /  -15.2 °C 1019.9 in /  34533.8 hPa North 3.7 mph /  6 km/h 3.7 mph /  6 km/h 46 % 0.0 in /  0 mm
13:33 16.3 °F /  -8.7 °C 4.7 °F /  -15.2 °C 1018.8 in /  34496.6 hPa NNE 3.7 mph /  6 km/h 3.7 mph /  6 km/h 46 % 0.0 in /  0 mm
13:57 16.6 °F /  -8.6 °C 4.6 °F /  -15.2 °C 1018.8 in /  34496.6 hPa NE 3.7 mph /  6 km/h 3.7 mph /  6 km/h 45 % 0.0 in /  0 mm
14:02 16.7 °F /  -8.5 °C 4.4 °F /  -15.3 °C 1018.8 in /  34496.6 hPa ENE 5.6 mph /  9 km/h 5.6 mph /  9 km/h 44 % 0.0 in /  0 mm
14:07 16.8 °F /  -8.4 °C 4.4 °F /  -15.3 °C 1018.8 in /  34496.6 hPa NNE 7.4 mph /  11.9 km/h 7.4 mph /  11.9 km/h 44 % 0.0 in /  0 mm
14:22 17.0 °F /  -8.3 °C 4.3 °F /  -15.4 °C 1018.8 in /  34496.6 hPa ENE 7.4 mph /  11.9 km/h 7.4 mph /  11.9 km/h 43 % 0.0 in /  0 mm
14:27 17.1 °F /  -8.3 °C 4.4 °F /  -15.3 °C 1018.8 in /  34496.6 hPa NE 5.6 mph /  9 km/h 5.6 mph /  9 km/h 43 % 0.0 in /  0 mm
14:32 17.3 °F /  -8.2 °C 4.6 °F /  -15.2 °C 1018.8 in /  34496.6 hPa ENE 5.8 mph /  9.3 km/h 5.8 mph /  9.3 km/h 43 % 0.0 in /  0 mm
14:37 17.4 °F /  -8.1 °C 4.7 °F /  -15.2 °C 1017.8 in /  34462.7 hPa NNW 3.7 mph /  6 km/h 3.7 mph /  6 km/h 43 % 0.0 in /  0 mm
14:42 17.5 °F /  -8.1 °C 4.4 °F /  -15.3 °C 1017.8 in /  34462.7 hPa ENE 5.6 mph /  9 km/h 5.6 mph /  9 km/h 42 % 0.0 in /  0 mm
14:47 17.7 °F /  -7.9 °C 4.6 °F /  -15.2 °C 1017.8 in /  34462.7 hPa ENE 3.7 mph /  6 km/h 3.7 mph /  6 km/h 42 % 0.0 in /  0 mm
14:52 17.8 °F /  -7.9 °C 4.7 °F /  -15.2 °C 1018.8 in /  34496.6 hPa NE 5.0 mph /  8 km/h 5.0 mph /  8 km/h 42 % 0.0 in /  0 mm
14:57 17.9 °F /  -7.8 °C 4.8 °F /  -15.1 °C 1018.8 in /  34496.6 hPa NNE 5.6 mph /  9 km/h 5.6 mph /  9 km/h 42 % 0.0 in /  0 mm
15:02 17.9 °F /  -7.8 °C 4.8 °F /  -15.1 °C 1017.8 in /  34462.7 hPa NE 5.6 mph /  9 km/h 5.6 mph /  9 km/h 42 % 0.0 in /  0 mm
15:07 17.8 °F /  -7.9 °C 4.7 °F /  -15.2 °C 1017.8 in /  34462.7 hPa ENE 3.7 mph /  6 km/h 3.7 mph /  6 km/h 42 % 0.0 in /  0 mm
15:12 17.8 °F /  -7.9 °C 4.7 °F /  -15.2 °C 1017.8 in /  34462.7 hPa NNW 5.6 mph /  9 km/h 5.6 mph /  9 km/h 42 % 0.0 in /  0 mm
15:17 17.5 °F /  -8.1 °C 4.4 °F /  -15.3 °C 1017.8 in /  34462.7 hPa North 5.6 mph /  9 km/h 5.6 mph /  9 km/h 42 % 0.0 in /  0 mm
15:22 17.3 °F /  -8.2 °C 4.3 °F /  -15.4 °C 1018.8 in /  34496.6 hPa WNW 2.3 mph /  3.7 km/h 2.3 mph /  3.7 km/h 42 % 0.0 in /  0 mm
15:27 17.2 °F /  -8.2 °C 4.2 °F /  -15.4 °C 1018.8 in /  34496.6 hPa North 1.9 mph /  3.1 km/h 1.9 mph /  3.1 km/h 42 % 0.0 in /  0 mm
15:32 17.2 °F /  -8.2 °C 4.2 °F /  -15.4 °C 1018.8 in /  34496.6 hPa NE 3.7 mph /  6 km/h 3.7 mph /  6 km/h 42 % 0.0 in /  0 mm
15:37 17.3 °F /  -8.2 °C 4.3 °F /  -15.4 °C 1017.8 in /  34462.7 hPa NNE 2.6 mph /  4.2 km/h 2.6 mph /  4.2 km/h 42 % 0.0 in /  0 mm
15:42 17.4 °F /  -8.1 °C 4.3 °F /  -15.4 °C 1017.8 in /  34462.7 hPa NNE 3.7 mph /  6 km/h   42 % 0.0 in /  0 mm
15:47 17.5 °F /  -8.1 °C 4.4 °F /  -15.3 °C 1017.8 in /  34462.7 hPa NE 1.9 mph /  3.1 km/h   42 % 0.0 in /  0 mm
15:52 17.5 °F /  -8.1 °C 4.1 °F /  -15.5 °C 1017.8 in /  34462.7 hPa North 3.2 mph /  5.1 km/h 3.2 mph /  5.1 km/h 41 % 0.0 in /  0 mm
15:57 17.6 °F /  -8 °C 4.5 °F /  -15.3 °C 1017.8 in /  34462.7 hPa Calm     42 % 0.0 in /  0 mm
16:02 17.5 °F /  -8.1 °C 4.1 °F /  -15.5 °C 1017.8 in /  34462.7 hPa NNW 3.7 mph /  6 km/h 3.7 mph /  6 km/h 41 % 0.0 in /  0 mm
16:07 17.5 °F /  -8.1 °C 4.1 °F /  -15.5 °C 1017.8 in /  34462.7 hPa Calm     41 % 0.0 in /  0 mm
16:13 17.6 °F /  -8 °C 4.2 °F /  -15.4 °C 1017.8 in /  34462.7 hPa Calm     41 % 0.0 in /  0 mm
16:18 17.6 °F /  -8 °C 4.5 °F /  -15.3 °C 1018.8 in /  34496.6 hPa NNW 1.9 mph /  3.1 km/h 1.9 mph /  3.1 km/h 42 % 0.0 in /  0 mm
16:23 17.6 °F /  -8 °C 4.2 °F /  -15.4 °C 1018.8 in /  34496.6 hPa Calm     41 % 0.0 in /  0 mm
16:28 17.5 °F /  -8.1 °C 4.1 °F /  -15.5 °C 1018.8 in /  34496.6 hPa Calm     41 % 0.0 in /  0 mm
16:33 17.4 °F /  -8.1 °C 4.0 °F /  -15.6 °C 1018.8 in /  34496.6 hPa North 1.9 mph /  3.1 km/h   41 % 0.0 in /  0 mm
16:38 17.3 °F /  -8.2 °C 3.9 °F /  -15.6 °C 1018.8 in /  34496.6 hPa North 1.4 mph /  2.3 km/h   41 % 0.0 in /  0 mm
16:43 17.1 °F /  -8.3 °C 3.7 °F /  -15.7 °C 1018.8 in /  34496.6 hPa Calm     41 % 0.0 in /  0 mm
16:48 17.1 °F /  -8.3 °C 3.7 °F /  -15.7 °C 1018.8 in /  34496.6 hPa NW 1.9 mph /  3.1 km/h 1.9 mph /  3.1 km/h 41 % 0.0 in /  0 mm
16:53 17.0 °F /  -8.3 °C 3.7 °F /  -15.7 °C 1018.8 in /  34496.6 hPa North 3.7 mph /  6 km/h 3.7 mph /  6 km/h 41 % 0.0 in /  0 mm
16:58 16.8 °F /  -8.4 °C 3.4 °F /  -15.9 °C 1018.8 in /  34496.6 hPa North 2.6 mph /  4.2 km/h 2.6 mph /  4.2 km/h 41 % 0.0 in /  0 mm
17:03 16.7 °F /  -8.5 °C 3.4 °F /  -15.9 °C 1018.8 in /  34496.6 hPa Calm     41 % 0.0 in /  0 mm
17:08 16.5 °F /  -8.6 °C 3.2 °F /  -16 °C 1018.8 in /  34496.6 hPa Calm     41 % 0.0 in /  0 mm
17:13 16.3 °F /  -8.7 °C 3.0 °F /  -16.1 °C 1018.8 in /  34496.6 hPa North 1.4 mph /  2.3 km/h   41 % 0.0 in /  0 mm
17:18 16.1 °F /  -8.8 °C 2.8 °F /  -16.2 °C 1018.8 in /  34496.6 hPa Calm     41 % 0.0 in /  0 mm
17:23 15.9 °F /  -8.9 °C 2.7 °F /  -16.3 °C 1018.8 in /  34496.6 hPa North 1.9 mph /  3.1 km/h   41 % 0.0 in /  0 mm
17:28 15.7 °F /  -9.1 °C 2.4 °F /  -16.4 °C 1018.8 in /  34496.6 hPa NNW 1.9 mph /  3.1 km/h   41 % 0.0 in /  0 mm
17:33 15.5 °F /  -9.2 °C 2.3 °F /  -16.5 °C 1018.8 in /  34496.6 hPa Calm     41 % 0.0 in /  0 mm
17:38 15.3 °F /  -9.3 °C 2.1 °F /  -16.6 °C 1018.8 in /  34496.6 hPa West 2.3 mph /  3.7 km/h 2.3 mph /  3.7 km/h 41 % 0.0 in /  0 mm
17:43 15.3 °F /  -9.3 °C 2.1 °F /  -16.6 °C 1018.8 in /  34496.6 hPa Calm     41 % 0.0 in /  0 mm
17:48 15.1 °F /  -9.4 °C 1.6 °F /  -16.9 °C 1018.8 in /  34496.6 hPa West 1.9 mph /  3.1 km/h   40 % 0.0 in /  0 mm
17:53 15.1 °F /  -9.4 °C 1.6 °F /  -16.9 °C 1018.8 in /  34496.6 hPa West 1.9 mph /  3.1 km/h   40 % 0.0 in /  0 mm
17:58 14.9 °F /  -9.5 °C 1.4 °F /  -17 °C 1018.8 in /  34496.6 hPa Calm     40 % 0.0 in /  0 mm
18:03 14.7 °F /  -9.6 °C 1.2 °F /  -17.1 °C 1018.8 in /  34496.6 hPa West 1.9 mph /  3.1 km/h   40 % 0.0 in /  0 mm
18:08 14.5 °F /  -9.7 °C 1.1 °F /  -17.2 °C 1018.8 in /  34496.6 hPa WSW 3.7 mph /  6 km/h 3.7 mph /  6 km/h 40 % 0.0 in /  0 mm
18:13 14.3 °F /  -9.8 °C 0.9 °F /  -17.3 °C 1018.8 in /  34496.6 hPa WSW 1.9 mph /  3.1 km/h   40 % 0.0 in /  0 mm
18:18 14.2 °F /  -9.9 °C 0.8 °F /  -17.3 °C 1018.8 in /  34496.6 hPa WSW 2.3 mph /  3.7 km/h   40 % 0.0 in /  0 mm
18:23 13.9 °F /  -10.1 °C 0.5 °F /  -17.5 °C 1018.8 in /  34496.6 hPa SW 3.9 mph /  6.3 km/h 3.9 mph /  6.3 km/h 40 % 0.0 in /  0 mm
18:25 8.3 °F /  -13.2 °C -2.7 °F /  -19.3 °C 1019.9 in /  34533.8 hPa Calm   1.6 mph /  2.6 km/h 46 % 0.0 in /  0 mm
18:28 13.8 °F /  -10.1 °C 0.4 °F /  -17.6 °C 1018.8 in /  34496.6 hPa WSW 3.7 mph /  6 km/h 3.7 mph /  6 km/h 40 % 0.0 in /  0 mm
18:33 13.9 °F /  -10.1 °C 0.5 °F /  -17.5 °C 1018.8 in /  34496.6 hPa SSW 1.9 mph /  3.1 km/h   40 % 0.0 in /  0 mm
18:35 8.2 °F /  -13.2 °C -2.8 °F /  -19.3 °C 1019.9 in /  34533.8 hPa West 1.6 mph /  2.6 km/h 3.2 mph /  5.1 km/h 46 % 0.0 in /  0 mm
18:38 13.8 °F /  -10.1 °C 0.4 °F /  -17.6 °C 1018.8 in /  34496.6 hPa SW 2.3 mph /  3.7 km/h 2.3 mph /  3.7 km/h 40 % 0.0 in /  0 mm
18:43 13.9 °F /  -10.1 °C 0.5 °F /  -17.5 °C 1018.8 in /  34496.6 hPa SW 5.0 mph /  8 km/h 5.0 mph /  8 km/h 40 % 0.0 in /  0 mm
18:45 8.3 °F /  -13.2 °C -2.7 °F /  -19.3 °C 1019.9 in /  34533.8 hPa WSW 1.6 mph /  2.6 km/h 3.2 mph /  5.1 km/h 46 % 0.0 in /  0 mm
18:48 14.0 °F /  -10 °C 0.2 °F /  -17.7 °C 1018.8 in /  34496.6 hPa WSW 3.7 mph /  6 km/h 3.7 mph /  6 km/h 39 % 0.0 in /  0 mm
18:53 14.0 °F /  -10 °C 0.2 °F /  -17.7 °C 1018.8 in /  34496.6 hPa West 7.4 mph /  11.9 km/h 7.4 mph /  11.9 km/h 39 % 0.0 in /  0 mm
18:55 8.1 °F /  -13.3 °C -2.6 °F /  -19.2 °C 1018.8 in /  34496.6 hPa Calm   3.2 mph /  5.1 km/h 47 % 0.0 in /  0 mm
19:03 13.7 °F /  -10.2 °C 0.3 °F /  -17.6 °C 1018.8 in /  34496.6 hPa WSW 3.7 mph /  6 km/h 3.7 mph /  6 km/h 40 % 0.0 in /  0 mm
19:05 7.8 °F /  -13.4 °C -2.8 °F /  -19.3 °C 1018.8 in /  34496.6 hPa Calm     47 % 0.0 in /  0 mm
19:08 13.4 °F /  -10.3 °C 0.1 °F /  -17.7 °C 1018.8 in /  34496.6 hPa WSW 1.9 mph /  3.1 km/h 1.9 mph /  3.1 km/h 40 % 0.0 in /  0 mm
19:13 13.2 °F /  -10.4 °C -0.4 °F /  -18 °C 1018.8 in /  34496.6 hPa Calm     39 % 0.0 in /  0 mm
19:15 7.7 °F /  -13.5 °C -2.6 °F /  -19.2 °C 1018.8 in /  34496.6 hPa SW 3.2 mph /  5.1 km/h 3.2 mph /  5.1 km/h 48 % 0.0 in /  0 mm
19:18 13.0 °F /  -10.6 °C -0.7 °F /  -18.2 °C 1018.8 in /  34496.6 hPa WSW 3.9 mph /  6.3 km/h   39 % 0.0 in /  0 mm
19:23 12.9 °F /  -10.6 °C -0.4 °F /  -18 °C 1018.8 in /  34496.6 hPa WSW 4.7 mph /  7.6 km/h 4.7 mph /  7.6 km/h 40 % 0.0 in /  0 mm
19:25 7.5 °F /  -13.6 °C -2.8 °F /  -19.3 °C 1018.8 in /  34496.6 hPa SW 1.6 mph /  2.6 km/h 3.2 mph /  5.1 km/h 48 % 0.0 in /  0 mm
19:28 12.7 °F /  -10.7 °C -0.6 °F /  -18.1 °C 1018.8 in /  34496.6 hPa WSW 3.2 mph /  5.1 km/h 3.2 mph /  5.1 km/h 40 % 0.0 in /  0 mm
19:33 12.7 °F /  -10.7 °C -0.6 °F /  -18.1 °C 1018.8 in /  34496.6 hPa WSW 1.9 mph /  3.1 km/h 2.3 mph /  3.7 km/h 40 % 0.0 in /  0 mm
19:35 12.7 °F /  -10.7 °C -0.6 °F /  -18.1 °C 1018.8 in /  34496.6 hPa WSW 2.6 mph /  4.2 km/h 2.6 mph /  4.2 km/h 40 % 0.0 in /  0 mm
19:40 12.7 °F /  -10.7 °C -0.6 °F /  -18.1 °C 1018.8 in /  34496.6 hPa WSW 3.2 mph /  5.1 km/h 3.2 mph /  5.1 km/h 40 % 0.0 in /  0 mm
19:45 12.6 °F /  -10.8 °C -0.7 °F /  -18.2 °C 1018.8 in /  34496.6 hPa WSW 3.2 mph /  5.1 km/h 3.2 mph /  5.1 km/h 40 % 0.0 in /  0 mm
19:50 12.5 °F /  -10.8 °C -0.8 °F /  -18.2 °C 1018.8 in /  34496.6 hPa SW 3.7 mph /  6 km/h 3.7 mph /  6 km/h 40 % 0.0 in /  0 mm
19:55 12.3 °F /  -10.9 °C -0.9 °F /  -18.3 °C 1018.8 in /  34496.6 hPa Calm   3.2 mph /  5.1 km/h 40 % 0.0 in /  0 mm
20:00 12.1 °F /  -11.1 °C -1.1 °F /  -18.4 °C 1018.8 in /  34496.6 hPa WSW 4.7 mph /  7.6 km/h 4.7 mph /  7.6 km/h 40 % 0.0 in /  0 mm
20:05 12.0 °F /  -11.1 °C -1.2 °F /  -18.4 °C 1018.8 in /  34496.6 hPa Calm   4.8 mph /  7.7 km/h 40 % 0.0 in /  0 mm
20:10 11.9 °F /  -11.2 °C -1.3 °F /  -18.5 °C 1018.8 in /  34496.6 hPa WSW 3.2 mph /  5.1 km/h 4.8 mph /  7.7 km/h 40 % 0.0 in /  0 mm
20:15 11.9 °F /  -11.2 °C -1.3 °F /  -18.5 °C 1018.8 in /  34496.6 hPa WSW 3.9 mph /  6.3 km/h 3.9 mph /  6.3 km/h 40 % 0.0 in /  0 mm
20:20 11.8 °F /  -11.2 °C -1.4 °F /  -18.6 °C 1018.8 in /  34496.6 hPa WSW 3.7 mph /  6 km/h 3.7 mph /  6 km/h 40 % 0.0 in /  0 mm
20:25 11.7 °F /  -11.3 °C -1.1 °F /  -18.4 °C 1018.8 in /  34496.6 hPa Calm     41 % 0.0 in /  0 mm
20:30 11.5 °F /  -11.4 °C -1.3 °F /  -18.5 °C 1018.8 in /  34496.6 hPa WSW 1.9 mph /  3.1 km/h 1.9 mph /  3.1 km/h 41 % 0.0 in /  0 mm
20:35 11.4 °F /  -11.4 °C -1.4 °F /  -18.6 °C 1018.8 in /  34496.6 hPa Calm     41 % 0.0 in /  0 mm
20:40 11.5 °F /  -11.4 °C -1.3 °F /  -18.5 °C 1018.8 in /  34496.6 hPa WSW 3.7 mph /  6 km/h 3.7 mph /  6 km/h 41 % 0.0 in /  0 mm
20:45 11.5 °F /  -11.4 °C -1.3 °F /  -18.5 °C 1018.8 in /  34496.6 hPa WSW 2.6 mph /  4.2 km/h 2.6 mph /  4.2 km/h 41 % 0.0 in /  0 mm
20:50 11.3 °F /  -11.5 °C -1.5 °F /  -18.6 °C 1018.8 in /  34496.6 hPa Calm     41 % 0.0 in /  0 mm
20:55 11.2 °F /  -11.6 °C -1.6 °F /  -18.7 °C 1018.8 in /  34496.6 hPa Calm     41 % 0.0 in /  0 mm
21:00 11.1 °F /  -11.6 °C -1.7 °F /  -18.7 °C 1018.8 in /  34496.6 hPa Calm     41 % 0.0 in /  0 mm
21:05 11.0 °F /  -11.7 °C -1.8 °F /  -18.8 °C 1018.8 in /  34496.6 hPa Calm     41 % 0.0 in /  0 mm
21:10 11.1 °F /  -11.6 °C -1.7 °F /  -18.7 °C 1018.8 in /  34496.6 hPa WSW 1.9 mph /  3.1 km/h 1.9 mph /  3.1 km/h 41 % 0.0 in /  0 mm
21:15 11.1 °F /  -11.6 °C -1.3 °F /  -18.5 °C 1018.8 in /  34496.6 hPa SSE 3.7 mph /  6 km/h 3.7 mph /  6 km/h 42 % 0.0 in /  0 mm
21:20 11.0 °F /  -11.7 °C -1.4 °F /  -18.6 °C 1018.8 in /  34496.6 hPa SSE 1.9 mph /  3.1 km/h 1.9 mph /  3.1 km/h 42 % 0.0 in /  0 mm
21:25 11.0 °F /  -11.7 °C -1.8 °F /  -18.8 °C 1018.8 in /  34496.6 hPa Calm     41 % 0.0 in /  0 mm
21:30 10.9 °F /  -11.7 °C -1.5 °F /  -18.6 °C 1018.8 in /  34496.6 hPa ESE 1.9 mph /  3.1 km/h 1.9 mph /  3.1 km/h 42 % 0.0 in /  0 mm
21:35 10.8 °F /  -11.8 °C -1.6 °F /  -18.7 °C 1018.8 in /  34496.6 hPa Calm     42 % 0.0 in /  0 mm
21:40 10.7 °F /  -11.8 °C -1.7 °F /  -18.7 °C 1018.8 in /  34496.6 hPa Calm     42 % 0.0 in /  0 mm
21:45 10.8 °F /  -11.8 °C -1.6 °F /  -18.7 °C 1018.8 in /  34496.6 hPa Calm     42 % 0.0 in /  0 mm
21:50 10.7 °F /  -11.8 °C -1.7 °F /  -18.7 °C 1018.8 in /  34496.6 hPa SW 3.2 mph /  5.1 km/h   42 % 0.0 in /  0 mm
21:55 10.2 °F /  -12.1 °C -2.2 °F /  -19 °C 1018.8 in /  34496.6 hPa WSW 3.9 mph /  6.3 km/h 3.9 mph /  6.3 km/h 42 % 0.0 in /  0 mm
22:00 9.9 °F /  -12.3 °C -2.1 °F /  -18.9 °C 1018.8 in /  34496.6 hPa WSW 3.7 mph /  6 km/h 3.7 mph /  6 km/h 43 % 0.0 in /  0 mm
22:05 9.9 °F /  -12.3 °C -2.1 °F /  -18.9 °C 1018.8 in /  34496.6 hPa WSW 1.9 mph /  3.1 km/h 2.3 mph /  3.7 km/h 43 % 0.0 in /  0 mm
22:10 9.9 °F /  -12.3 °C -2.1 °F /  -18.9 °C 1018.8 in /  34496.6 hPa WSW 3.7 mph /  6 km/h 3.7 mph /  6 km/h 43 % 0.0 in /  0 mm
22:15 9.7 °F /  -12.4 °C -2.3 °F /  -19.1 °C 1018.8 in /  34496.6 hPa SW 3.9 mph /  6.3 km/h 3.9 mph /  6.3 km/h 43 % 0.0 in /  0 mm
22:20 9.6 °F /  -12.4 °C -2.4 °F /  -19.1 °C 1018.8 in /  34496.6 hPa WSW 3.7 mph /  6 km/h 3.7 mph /  6 km/h 43 % 0.0 in /  0 mm
22:25 9.5 °F /  -12.5 °C -2.5 °F /  -19.2 °C 1018.8 in /  34496.6 hPa WSW 3.2 mph /  5.1 km/h   43 % 0.0 in /  0 mm
22:30 9.6 °F /  -12.4 °C -2.4 °F /  -19.1 °C 1018.8 in /  34496.6 hPa WSW 3.7 mph /  6 km/h 3.7 mph /  6 km/h 43 % 0.0 in /  0 mm
22:35 9.5 °F /  -12.5 °C -2.2 °F /  -19 °C 1019.9 in /  34533.8 hPa WSW 1.9 mph /  3.1 km/h   44 % 0.0 in /  0 mm
22:40 9.5 °F /  -12.5 °C -2.5 °F /  -19.2 °C 1019.9 in /  34533.8 hPa WSW 3.7 mph /  6 km/h 3.9 mph /  6.3 km/h 43 % 0.0 in /  0 mm
22:45 9.3 °F /  -12.6 °C -2.3 °F /  -19.1 °C 1019.9 in /  34533.8 hPa WSW 3.7 mph /  6 km/h 3.7 mph /  6 km/h 44 % 0.0 in /  0 mm
22:50 9.0 °F /  -12.8 °C -2.6 °F /  -19.2 °C 1018.8 in /  34496.6 hPa West 3.7 mph /  6 km/h 3.7 mph /  6 km/h 44 % 0.0 in /  0 mm
22:55 9.1 °F /  -12.7 °C -2.6 °F /  -19.2 °C 1018.8 in /  34496.6 hPa WSW 3.7 mph /  6 km/h 3.7 mph /  6 km/h 44 % 0.0 in /  0 mm
23:00 9.2 °F /  -12.7 °C -2.4 °F /  -19.1 °C 1018.8 in /  34496.6 hPa WSW 2.3 mph /  3.7 km/h 2.3 mph /  3.7 km/h 44 % 0.0 in /  0 mm
23:05 9.1 °F /  -12.7 °C -2.6 °F /  -19.2 °C 1019.9 in /  34533.8 hPa WSW 1.9 mph /  3.1 km/h 1.9 mph /  3.1 km/h 44 % 0.0 in /  0 mm
23:10 9.0 °F /  -12.8 °C -2.6 °F /  -19.2 °C 1019.9 in /  34533.8 hPa WSW 1.9 mph /  3.1 km/h   44 % 0.0 in /  0 mm
23:15 9.0 °F /  -12.8 °C -2.6 °F /  -19.2 °C 1019.9 in /  34533.8 hPa West 1.9 mph /  3.1 km/h   44 % 0.0 in /  0 mm
23:20 9.1 °F /  -12.7 °C -2.2 °F /  -19 °C 1018.8 in /  34496.6 hPa WNW 1.9 mph /  3.1 km/h   45 % 0.0 in /  0 mm
23:25 9.1 °F /  -12.7 °C -2.2 °F /  -19 °C 1018.8 in /  34496.6 hPa Calm     45 % 0.0 in /  0 mm
23:30 9.1 °F /  -12.7 °C -2.2 °F /  -19 °C 1018.8 in /  34496.6 hPa WNW 3.7 mph /  6 km/h 3.7 mph /  6 km/h 45 % 0.0 in /  0 mm
23:35 9.1 °F /  -12.7 °C -2.2 °F /  -19 °C 1019.9 in /  34533.8 hPa WNW 3.2 mph /  5.1 km/h 3.2 mph /  5.1 km/h 45 % 0.0 in /  0 mm
23:40 9.1 °F /  -12.7 °C -2.2 °F /  -19 °C 1019.9 in /  34533.8 hPa WNW 1.9 mph /  3.1 km/h   45 % 0.0 in /  0 mm
23:45 9.2 °F /  -12.7 °C -2.1 °F /  -18.9 °C 1019.9 in /  34533.8 hPa WNW 2.3 mph /  3.7 km/h 2.3 mph /  3.7 km/h 45 % 0.0 in /  0 mm
23:50 9.2 °F /  -12.7 °C -2.1 °F /  -18.9 °C 1019.9 in /  34533.8 hPa WNW 3.7 mph /  6 km/h 3.7 mph /  6 km/h 45 % 0.0 in /  0 mm
23:55 9.1 °F /  -12.7 °C -2.2 °F /  -19 °C 1019.9 in /  34533.8 hPa WNW 1.9 mph /  3.1 km/h 1.9 mph /  3.1 km/h 45 % 0.0 in /  0 mm
Meteo Sesrovires
Elogis d' Weather Underground - 3.5 mb

Guio original per  Jim McMurry - jmcmurry@mwt.net Adaptat per a la plantilla per  Wim van der Kuil - Leuven-Template.eu

Trobareu la nostra informacio del temps tambe a:

Weather Underground

AWEKAS